createdAt,value
2022-09-12T00:03:15.489Z,0
2022-09-12T00:13:54.262Z,0
2022-09-12T00:22:27.323Z,0
2022-09-12T00:24:32.700Z,0
2022-09-12T00:29:52.142Z,0
2022-09-12T00:35:11.589Z,0
2022-09-12T00:40:30.804Z,0
2022-09-12T00:45:49.930Z,0
2022-09-12T00:56:29.149Z,0
2022-09-12T01:01:48.399Z,0
2022-09-12T01:07:07.459Z,0
2022-09-12T01:15:40.518Z,0
2022-09-12T01:17:45.939Z,0
2022-09-12T01:23:05.618Z,0
2022-09-12T01:28:24.921Z,0
2022-09-12T01:32:41.581Z,0
2022-09-12T01:37:14.238Z,0
2022-09-12T01:50:21.007Z,0
2022-09-12T01:58:54.071Z,0
2022-09-12T02:00:58.966Z,0
2022-09-12T02:06:18.028Z,0
2022-09-12T02:11:37.005Z,0
2022-09-12T02:16:56.079Z,0
2022-09-12T02:30:47.994Z,0
2022-09-12T02:35:04.503Z,0
2022-09-12T02:39:21.033Z,0
2022-09-12T02:43:33.531Z,0
2022-09-12T02:48:52.561Z,0
2022-09-12T02:54:11.517Z,0
2022-09-12T02:59:31.043Z,0
2022-09-12T03:10:09.200Z,0
2022-09-12T03:15:28.429Z,0
2022-09-12T03:20:47.450Z,0
2022-09-12T03:26:06.682Z,0
2022-09-12T03:34:39.773Z,0
2022-09-12T03:38:56.292Z,0
2022-09-12T03:43:12.798Z,0
2022-09-12T03:52:42.907Z,0
2022-09-12T03:58:02.200Z,0
2022-09-12T04:03:21.401Z,0
2022-09-12T04:08:40.713Z,0
2022-09-12T04:14:00.295Z,0
2022-09-12T04:22:33.332Z,0
2022-09-12T04:24:38.117Z,0
2022-09-12T04:29:57.743Z,0
2022-09-12T04:35:16.812Z,0
2022-09-12T04:40:35.732Z,0.0018
2022-09-12T04:51:15.023Z,0.0227
2022-09-12T04:56:34.003Z,0.0305
2022-09-12T05:01:53.074Z,0.0353
2022-09-12T05:07:12.536Z,0.042
2022-09-12T05:15:45.618Z,0.0484
2022-09-12T05:20:02.135Z,0.0496
2022-09-12T05:24:18.689Z,0.0512
2022-09-12T05:33:48.302Z,0.0678
2022-09-12T05:39:07.959Z,0.0716
2022-09-12T05:49:46.822Z,0.0876
2022-09-12T05:55:06.049Z,0.0928
2022-09-12T06:00:25.579Z,0.098
2022-09-12T06:05:48.787Z,0.1008
2022-09-12T06:16:24.090Z,0.1379
2022-09-12T06:21:43.655Z,0.1431
2022-09-12T06:27:02.997Z,0.1465
2022-09-12T06:32:22.168Z,0.1582
2022-09-12T06:37:41.428Z,0.1642
2022-09-12T06:43:10.746Z,0.1747
2022-09-12T06:53:38.634Z,0.2049
2022-09-12T06:58:58.124Z,0.2101
2022-09-12T07:04:16.930Z,0.2371
2022-09-12T07:09:35.752Z,0.2453
2022-09-12T07:14:54.798Z,0.2757
2022-09-12T07:20:14.192Z,0.278
2022-09-12T07:25:33.032Z,0.3005
2022-09-12T07:30:51.805Z,0.3526
2022-09-12T07:36:11.460Z,0.369
2022-09-12T07:41:30.311Z,0.3738
2022-09-12T07:52:08.762Z,0.4997
2022-09-12T08:00:41.826Z,0.3873
2022-09-12T08:04:58.355Z,0.431
2022-09-12T08:13:31.419Z,0.4391
2022-09-12T08:18:44.936Z,0.5123
2022-09-12T08:24:03.979Z,0.5866
2022-09-12T08:32:37.033Z,0.7734
2022-09-12T08:34:42.420Z,0.5707
2022-09-12T08:53:53.361Z,0.8546
2022-09-12T09:02:26.508Z,1.2582
2022-09-12T09:17:15.674Z,1.1107
2022-09-12T09:22:36.148Z,1.4363
2022-09-12T09:27:53.992Z,1.3941
2022-09-12T09:36:27.063Z,1.3803
2022-09-12T09:38:31.422Z,1.4073
2022-09-12T09:43:50.545Z,1.5131
2022-09-12T09:49:10.104Z,1.4843
2022-09-12T09:59:48.003Z,1.4278
2022-09-12T10:10:26.151Z,1.5669
2022-09-12T10:21:03.697Z,1.6857
2022-09-12T10:26:22.858Z,1.6029
2022-09-12T10:34:55.859Z,1.76
2022-09-12T10:39:12.397Z,1.7641
2022-09-12T10:42:23.322Z,1.8215
2022-09-12T10:58:17.816Z,1.8517
2022-09-12T11:03:36.913Z,1.5493
2022-09-12T11:08:56.235Z,1.4782
2022-09-12T11:14:15.304Z,1.6129
2022-09-12T11:19:34.864Z,1.4692
2022-09-12T11:24:53.739Z,1.4968
2022-09-12T11:30:12.838Z,1.1642
2022-09-12T11:35:31.817Z,1.0361
2022-09-12T11:40:50.479Z,1.1178
2022-09-12T11:46:09.923Z,1.0543
2022-09-12T11:54:42.948Z,0.746
2022-09-12T11:58:59.461Z,0.8851
2022-09-12T12:03:16.089Z,1.5961
2022-09-12T12:07:27.276Z,1.6296
2022-09-12T12:12:46.772Z,0.5531
2022-09-12T12:18:05.821Z,0.775
2022-09-12T12:23:25.087Z,2.23
2022-09-12T12:28:43.883Z,1.0068
2022-09-12T12:42:36.545Z,1.7528
2022-09-12T12:44:41.969Z,1.0564
2022-09-12T12:50:00.832Z,1.4208
2022-09-12T12:55:19.517Z,1.8913
2022-09-12T13:00:39.895Z,2.219
2022-09-12T13:05:57.731Z,0.7443
2022-09-12T13:11:16.853Z,0.6224
2022-09-12T13:16:36.274Z,0.7814
2022-09-12T13:25:09.337Z,0.5136
2022-09-12T13:27:14.579Z,0.6747
2022-09-12T13:32:34.205Z,0.4493
2022-09-12T13:37:53.478Z,2.1157
2022-09-12T13:43:13.033Z,0.8125
2022-09-12T13:53:51.694Z,1.3439
2022-09-12T13:59:10.557Z,0.4631
2022-09-12T14:04:29.506Z,0.4081
2022-09-12T14:15:07.456Z,1.0574
2022-09-12T14:20:26.952Z,0.4084
2022-09-12T14:31:05.685Z,0.9779
2022-09-12T14:36:24.410Z,1.0145
2022-09-12T14:41:43.522Z,0.9524
2022-09-12T14:47:15.039Z,0.8699
2022-09-12T14:52:22.631Z,0.7303
2022-09-12T14:57:41.914Z,0.6211
2022-09-12T15:13:40.010Z,0.594
2022-09-12T15:18:59.398Z,0.5587
2022-09-12T15:29:37.935Z,0.5075
2022-09-12T15:34:56.888Z,0.3723
2022-09-12T15:40:16.130Z,0.3508
2022-09-12T15:45:35.150Z,0.3303
2022-09-12T15:56:13.273Z,0.2866
2022-09-12T16:01:32.383Z,0.2448
2022-09-12T16:12:10.119Z,0.2105
2022-09-12T16:17:29.369Z,0.1791
2022-09-12T16:22:48.549Z,0.147
2022-09-12T16:28:07.899Z,0.1248
2022-09-12T16:38:46.603Z,0.1139
2022-09-12T16:44:05.919Z,0.0949
2022-09-12T16:54:44.079Z,0.0681
2022-09-12T17:00:03.612Z,0.0644
2022-09-12T17:05:22.966Z,0.0691
2022-09-12T17:10:42.511Z,0.0645
2022-09-12T17:16:01.990Z,0.0596
2022-09-12T17:21:21.214Z,0.0504
2022-09-12T17:31:59.728Z,0.0402
2022-09-12T17:37:18.497Z,0.0341
2022-09-12T17:42:37.923Z,0.022
2022-09-12T17:53:16.296Z,0.0018
2022-09-12T17:58:35.651Z,0
2022-09-12T18:03:54.673Z,0
2022-09-12T18:09:13.489Z,0
2022-09-12T18:14:32.867Z,0
2022-09-12T18:19:53.688Z,0
2022-09-12T18:25:11.727Z,0
2022-09-12T18:35:49.333Z,0
2022-09-12T18:41:08.102Z,0
2022-09-12T18:46:27.221Z,0
2022-09-12T18:51:46.663Z,0
2022-09-12T18:57:06.389Z,0
2022-09-12T19:02:25.200Z,0
2022-09-12T19:07:44.017Z,0
2022-09-12T19:18:22.442Z,0
2022-09-12T19:23:41.214Z,0
2022-09-12T19:29:00.575Z,0
2022-09-12T19:34:19.439Z,0
2022-09-12T19:39:39.234Z,0
2022-09-12T19:44:58.838Z,0
2022-09-12T19:50:17.929Z,0
2022-09-12T19:58:55.277Z,0
2022-09-12T20:04:37.809Z,0
2022-09-12T20:09:57.377Z,0
2022-09-12T20:15:16.593Z,0
2022-09-12T20:20:35.609Z,0
2022-09-12T20:25:54.993Z,0
2022-09-12T20:31:14.278Z,0
2022-09-12T20:41:52.351Z,0
2022-09-12T20:47:11.440Z,0
2022-09-12T20:52:31.111Z,0
2022-09-12T20:57:50.390Z,0
2022-09-12T21:03:09.835Z,0
2022-09-12T21:08:29.211Z,0
2022-09-12T21:13:48.158Z,0
2022-09-12T21:24:26.867Z,0
2022-09-12T21:29:45.773Z,0
2022-09-12T21:40:24.146Z,0
2022-09-12T21:45:42.876Z,0
2022-09-12T21:51:02.270Z,0
2022-09-12T22:03:51.878Z,0
2022-09-12T22:08:08.404Z,0
2022-09-12T22:12:18.209Z,0
2022-09-12T22:17:37.135Z,0
2022-09-12T22:22:56.524Z,0
2022-09-12T22:28:16.265Z,0
2022-09-12T22:33:35.388Z,0
2022-09-12T22:38:55.035Z,0
2022-09-12T22:44:14.456Z,0
2022-09-12T22:49:33.592Z,0
2022-09-12T22:54:53.195Z,0
2022-09-12T23:03:26.271Z,0
2022-09-12T23:11:59.291Z,0
2022-09-12T23:21:28.123Z,0
2022-09-12T23:26:47.331Z,0
2022-09-12T23:32:07.086Z,0
2022-09-12T23:48:04.146Z,0
2022-09-12T23:53:23.597Z,0
2022-09-12T23:58:42.650Z,0
